Tiempo atmosférico en la estación meteorológica de Aranjuez, Madrid (540 m.)



Fecha
DESCASC
Temp. máxima en grados centígrados (hora)
DESCASC
Temp. mínima en grados centígrados (hora)
DESCASC
Temp. media en grados centígrados
DESCASC
Racha de viento máxima en m/sg (hora)
DESCASC
Velocidad máxima media en intervalos de 10 minutos(hora)
DESCASC
Precipitaciones diarias en mm
DESCASC
Precipitaciones de 00:00 a 06:00 en mm
DESCASC
Precipitaciones de 06:00 a 12:00 en mm
DESCASC
Precipitaciones de 12:00 a 18:00 en mm
DESCASC
Precipitaciones de 18:00 a 24:00 en mm
DESCASC
22-01-2020 12.3 (15:30) 2.4 (23:10) 7.4 10 (17:10) 7.22 (17:10) 1.8 0 0.7 1 0.1
21-01-2020 8.8 (15:10) 3.8 (22:40) 6.3 18.89 (05:20) 5.56 (04:10) 1.4 0 0.2 1.1 0.1
20-01-2020 7.9 (15:30) 2.8 (05:10) 5.4 12.5 (14:20) 6.39 (16:20) 0 0 0 0 0
19-01-2020 9.6 (17:10) 2 (00:00) 5.8 17.5 (14:20) 7.78 (14:20) 0.1 0 0.1 0 0
18-01-2020 11.2 (16:30) 4.2 (00:00) 7.7 5.83 (22:00) 3.06 (11:50) 1.1 0 0.9 0 0.2
17-01-2020 13.3 (15:20) 1.6 (00:00) 7.5 7.78 (13:00) 3.89 (13:00) 0 0 0 0 0
16-01-2020 16.2 (16:10) 5.7 (00:00) 11 3.89 (07:10) 2.5 (07:30) 0 0 0 0 0
15-01-2020 11 (15:20) 0.5 (00:00) 5.8 5.28 (05:50) 3.61 (06:00) 0 0 0 0 0
14-01-2020 11.6 (16:50) -3.3 (-00:0) 4.2 6.11 (03:30) 4.17 (10:10) 0 0 0 0 0
13-01-2020 10.6 (15:50) -4.1 (-00:0) 3.3 4.72 (11:20) 3.33 (11:20) 0 0 0 0 0
12-01-2020 10.9 (16:40) -5.2 (-00:0) 2.8 3.89 (00:20) 2.5 (00:20) 0 0 0 0 0
11-01-2020 11.8 (16:50) -3.3 (-00:0) 4.3 4.44 (02:50) 2.5 (02:50) 0 0 0 0 0
10-01-2020 12.7 (15:30) -2.5 (-00:0) 5.1 10.28 (15:40) 4.17 (15:40) 0 0 0 0 0
09-01-2020 14 (16:00) -1.5 (-00:0) 6.3 5 (10:30) 3.06 (10:30) 0 0 0 0 0
08-01-2020 16.4 (16:50) -3.2 (-00:0) 6.6 4.44 (22:40) 2.78 (23:20) 0 0 0 0 0
07-01-2020 13.8 (16:40) -4.1 (-00:0) 4.9 2.78 (22:10) 1.39 (02:40) 0 0 0 0 0
06-01-2020 13.6 (16:10) -3.1 (-00:0) 5.3 3.61 (02:40) 2.22 (02:40) 0 0 0 0 0
05-01-2020 11.7 (15:50) -4.1 (-00:0) 3.8 2.5 (22:30) 1.67 (22:30) 0 0 0 0 0
04-01-2020 13.1 (17:00) -1.4 (-00:0) 5.9 3.06 (03:20) 1.67 (02:00) 0 0 0 0 0
03-01-2020 6.8 (15:00) -2.1 (-00:0) 2.4 2.78 (20:10) 1.67 (13:20) 0 0 0 0 0
02-01-2020 13.4 (16:30) -3.4 (-00:0) 5 3.89 (01:20) 2.5 (03:10) 0 0 0 0 0
01-01-2020 12.5 (15:40) -2.4 (-00:0) 5 3.89 (02:50) 2.22 (01:50) 0 0 0 0 0
31-12-2019 13.9 (16:40) -1.8 (-00:0) 6 3.89 (02:50) 3.06 (02:50) 0 0 0 0 0
30-12-2019 13 (15:50) -0.9 (-00:0) 6.1 5.83 (11:00) 4.72 (11:00) 0 0 0 0 0
29-12-2019 15.1 (16:20) -2.5 (-00:0) 6.3 5.28 (11:20) 3.61 (11:30) 0 0 0 0 0
28-12-2019 14.6 (16:00) -2.4 (-00:0) 6.1 3.61 (23:20) 2.5 (22:30) 0 0 0 0 0
27-12-2019 15.2 (16:40) -0.4 (00:00) 7.4 4.17 (10:20) 2.5 (10:20) 0 0 0 0 0
26-12-2019 13.6 (15:00) 1.6 (00:00) 7.6 4.72 (00:10) 3.33 (00:10) 0 0 0 0 0
25-12-2019 17.2 (16:10) 0 (00:00) 8.6 4.72 (23:40) 3.33 (23:40) 0 0 0 0 0

Gráficas

Temp. máximas Temp. mínimas Temp. medias Precipitaciones Rachas de viento máximas Velocidades máximas media en intervalos de 10 minutos

Datos horarios

Fecha y hora oficial Temperatura (ºC) Velocidad del viento (km/h) Dirección del viento Racha (km/h) Dirección de racha Precipitación (mm) Presión (hPa) Tendencia (hPa) Humedad (%)
2020-01-23 23:00:00 8.2 14 Este 22 Este 0 -- -- 74
2020-01-23 22:00:00 8 12 Este 18 Este 0 -- -- 74
2020-01-23 21:00:00 7.4 9 Este 13 Este 0 -- -- 76
2020-01-23 20:00:00 7.7 7 Este 13 Este 0 -- -- 72
2020-01-23 19:00:00 8.3 5 Este 8 Este 0 -- -- 66
2020-01-23 18:00:00 10.4 6 Sudeste 13 Sudeste 0 -- -- 60
2020-01-23 17:00:00 11.6 10 Sudeste 18 Este 0 -- -- 57
2020-01-23 16:00:00 12.1 8 Sudeste 15 Sudeste 0 -- -- 57
2020-01-23 15:00:00 11.4 8 Sudeste 14 Sudeste 0 -- -- 60
2020-01-23 14:00:00 11 7 Sur 15 Sur 0 -- -- 66
2020-01-23 13:00:00 8.1 8 Sudeste 24 Sudeste 0 -- -- 76
2020-01-23 12:00:00 6.6 10 Sudeste 21 Sudeste 0 -- -- 80
2020-01-23 11:00:00 3.4 10 Este 16 Sudeste 0 -- -- 88
2020-01-23 10:00:00 1.3 8 Este 13 Este 0 -- -- 92
2020-01-23 09:00:00 -0.3 0 Calma 5 Este 0 -- -- 92
2020-01-23 08:00:00 0.5 4 Este 9 Este 0 -- -- 92
2020-01-23 07:00:00 -0.5 0 Calma 4 Este 0 -- -- 91
2020-01-23 06:00:00 0.2 0 Calma 7 Este 0 -- -- 89
2020-01-23 05:00:00 1.6 5 Este 9 Nordeste 0 -- -- 89
2020-01-23 04:00:00 2.2 6 Este 14 Este 0 -- -- 88
2020-01-23 03:00:00 2.4 3 Este 9 Este 0 -- -- 88
2020-01-23 02:00:00 2.8 5 Este 10 Este 0 -- -- 88
2020-01-23 01:00:00 3 6 Este 9 Este 0 -- -- 87
2020-01-23 00:00:00 3 3 Nordeste 9 Este 0 -- -- 87
2020-01-22 23:00:00 2.6 2 Este 8 Este 0 -- -- 85
2020-01-22 22:00:00 4 4 Este 8 Este 0 -- -- 85
2020-01-22 21:00:00 4.6 0 Calma 9 Este 0 -- -- 80
2020-01-22 20:00:00 6.4 4 Este 10 Este 0 -- -- 76
2020-01-22 19:00:00 7.5 4 Nordeste 14 Sur 0.1 -- -- 74
2020-01-22 18:00:00 9.2 6 Sudeste 36 Este 1 -- -- 69
2020-01-22 17:00:00 11.9 14 Sudeste 22 Sudeste 0 -- -- 51
2020-01-22 16:00:00 11.3 7 Sudeste 27 Sudeste 0 -- -- 56
2020-01-22 15:00:00 11.8 18 Sudeste 28 Sudeste 0 -- -- 57
2020-01-22 14:00:00 10.5 18 Sudeste 31 Sudeste 0 -- -- 62
2020-01-22 13:00:00 10.3 21 Sudeste 29 Sudeste 0 -- -- 66
2020-01-22 12:00:00 9.3 15 Este 25 Este 0 -- -- 74
2020-01-22 11:00:00 5.8 8 Sudeste 10 Sudeste 0.2 -- -- 84
2020-01-22 10:00:00 5.2 4 Este 10 Sudeste 0.2 -- -- 84
2020-01-22 09:00:00 4.9 8 Sudeste 11 Sudeste 0 -- -- 84
2020-01-22 08:00:00 5 2 Sudoeste 13 Este 0.3 -- -- 82
2020-01-22 07:00:00 5.5 5 Este 13 Este 0 -- -- 77
2020-01-22 06:00:00 5.6 5 Este 14 Este 0 -- -- 77
2020-01-22 05:00:00 5.2 5 Este 15 Este 0 -- -- 79
2020-01-22 04:00:00 5.6 9 Este 14 Sudeste 0 -- -- 81
2020-01-22 03:00:00 4.6 3 Este 13 Sudeste 0 -- -- 84
2020-01-22 02:00:00 4.6 7 Este 20 Este 0 -- -- 84
2020-01-22 01:00:00 4.2 7 Sudeste 14 Sudeste 0 -- -- 82
2020-01-22 00:00:00 4.6 3 Nordeste 10 Este 0 -- -- 82
2020-01-21 23:00:00 3.9 3 Sudeste 5 Norte 0 -- -- 84
2020-01-21 22:00:00 3.9 2 Noroeste 6 Sudeste 0 -- -- 82
2020-01-21 21:00:00 4.5 4 Norte 13 Sudeste 0 -- -- 77
2020-01-21 20:00:00 5.2 12 Este 25 Este 0 -- -- 77
2020-01-21 19:00:00 5.2 9 Este 15 Este 0.1 -- -- 81
2020-01-21 18:00:00 5.1 7 Este 26 Nordeste 0 -- -- 80
2020-01-21 17:00:00 5.4 12 Nordeste 36 Nordeste 1.1 -- -- 79
2020-01-21 16:00:00 7.6 17 Nordeste 40 Este 0 -- -- 58
2020-01-21 15:00:00 8.7 15 Nordeste 34 Este 0 -- -- 52
2020-01-21 14:00:00 8.3 17 Este 35 Este 0 -- -- 54
2020-01-21 13:00:00 7.5 13 Nordeste 28 Este 0 -- -- 56
2020-01-21 12:00:00 6.4 14 Este 32 Este 0 -- -- 58
2020-01-21 11:00:00 6 15 Este 30 Este 0 -- -- 59
2020-01-21 10:00:00 5.1 11 Nordeste 33 Este 0.2 -- -- 62
2020-01-21 09:00:00 5.5 14 Nordeste 31 Nordeste 0 -- -- 56
2020-01-21 08:00:00 5.5 11 Nordeste 21 Nordeste 0 -- -- 57
2020-01-21 07:00:00 4.8 5 Nordeste 27 Este 0 -- -- 57
2020-01-21 06:00:00 4.1 9 Nordeste 68 Nordeste 0 -- -- 57
2020-01-21 05:00:00 4.4 15 Nordeste 48 Nordeste 0 -- -- 55
2020-01-21 04:00:00 5.4 17 Nordeste 42 Nordeste 0 -- -- 52
2020-01-21 03:00:00 5.7 13 Nordeste 33 Nordeste 0 -- -- 52
2020-01-21 02:00:00 5.9 15 Nordeste 39 Este 0 -- -- 52
2020-01-21 01:00:00 5.7 18 Nordeste 36 Nordeste 0 -- -- 52
2020-01-21 00:00:00 5.3 14 Nordeste 34 Nordeste 0 -- -- 52
2020-01-20 23:00:00 4.9 13 Nordeste 34 Nordeste 0 -- -- 52
2020-01-20 22:00:00 5.1 16 Nordeste 38 Este 0 -- -- 51
2020-01-20 21:00:00 5.4 14 Nordeste 34 Nordeste 0 -- -- 49
2020-01-20 20:00:00 5.4 18 Nordeste 36 Nordeste 0 -- -- 48
2020-01-20 19:00:00 5.8 19 Nordeste 41 Este 0 -- -- 47
2020-01-20 18:00:00 6.4 22 Nordeste 40 Este 0 -- -- 44
2020-01-20 17:00:00 7 18 Nordeste 44 Este 0 -- -- 42
2020-01-20 16:00:00 7.1 21 Nordeste 44 Este 0 -- -- 41
2020-01-20 15:00:00 7 18 Nordeste 45 Este 0 -- -- 39
2020-01-20 14:00:00 6.8 17 Nordeste 41 Este 0 -- -- 38
2020-01-20 13:00:00 6 19 Nordeste 44 Nordeste 0 -- -- 36
2020-01-20 12:00:00 4.8 16 Nordeste 32 Nordeste 0 -- -- 36
2020-01-20 11:00:00 3.8 11 Nordeste 31 Nordeste 0 -- -- 37
2020-01-20 10:00:00 3.1 14 Nordeste 31 Nordeste 0 -- -- 38
2020-01-20 09:00:00 3 14 Nordeste 35 Este 0 -- -- 37
2020-01-20 08:00:00 3 14 Nordeste 33 Este 0 -- -- 37
2020-01-20 07:00:00 2.9 13 Nordeste 35 Nordeste 0 -- -- 38
2020-01-20 06:00:00 2.9 15 Nordeste 37 Nordeste 0 -- -- 39
2020-01-20 05:00:00 3 15 Nordeste 36 Este 0 -- -- 39
2020-01-20 04:00:00 3.1 15 Nordeste 39 Nordeste 0 -- -- 39
2020-01-20 03:00:00 3.2 18 Nordeste 41 Nordeste 0 -- -- 38
2020-01-20 02:00:00 3.5 18 Nordeste 44 Nordeste 0 -- -- 38
2020-01-20 01:00:00 3.8 14 Nordeste 39 Nordeste 0 -- -- 38
2020-01-20 00:00:00 4.2 18 Nordeste 49 Este 0 -- -- 35
2020-01-19 23:00:00 4.5 17 Nordeste 37 Nordeste 0 -- -- 35
2020-01-19 22:00:00 4.7 19 Este 47 Este 0 -- -- 33
2020-01-19 21:00:00 5.5 22 Nordeste 51 Nordeste 0 -- -- 31
2020-01-19 20:00:00 6.3 16 Nordeste 39 Nordeste 0 -- -- 30
2020-01-19 19:00:00 7.1 10 Nordeste 40 Nordeste 0 -- -- 30
2020-01-19 18:00:00 8.4 19 Nordeste 51 Este 0 -- -- 28
2020-01-19 17:00:00 9.4 15 Nordeste 46 Nordeste 0 -- -- 31
2020-01-19 16:00:00 8.5 19 Nordeste 47 Nordeste 0 -- -- 34
2020-01-19 15:00:00 8.9 21 Nordeste 63 Nordeste 0 -- -- 34
2020-01-19 14:00:00 8.8 23 Nordeste 58 Nordeste 0 -- -- 40
2020-01-19 13:00:00 8.5 27 Nordeste 50 Nordeste 0 -- -- 45
2020-01-19 12:00:00 7.6 10 Nordeste 30 Nordeste 0 -- -- 66
2020-01-19 11:00:00 7.2 11 Norte 26 Norte 0 -- -- 74
2020-01-19 10:00:00 5.9 3 Norte 30 Norte 0 -- -- 82
2020-01-19 09:00:00 3.9 7 Noroeste 9 Noroeste 0.1 -- -- 90
2020-01-19 08:00:00 3.3 3 Norte 8 Nordeste 0 -- -- 89
2020-01-19 07:00:00 2.1 5 Norte 8 Norte 0 -- -- 87
2020-01-19 06:00:00 3 0 Calma 6 Nordeste 0 -- -- 84
2020-01-19 05:00:00 4.7 3 Norte 9 Norte 0 -- -- 77
2020-01-19 04:00:00 5.9 6 Noroeste 13 Noroeste 0 -- -- 76
2020-01-19 03:00:00 5.8 3 Noroeste 14 Noroeste 0 -- -- 74
2020-01-19 02:00:00 6.9 6 Noroeste 17 Oeste 0 -- -- 79
2020-01-19 01:00:00 7.8 0 Calma 13 Norte 0 -- -- 87
2020-01-19 00:00:00 9 6 Noroeste 15 Noroeste 0 -- -- 89
2020-01-18 23:00:00 9 0 Calma 21 Oeste 0 -- -- 89
2020-01-18 22:00:00 9.3 9 Oeste 21 Oeste 0.1 -- -- 90
2020-01-18 21:00:00 9.5 6 Noroeste 16 Norte 0 -- -- 90
2020-01-18 20:00:00 9.2 6 Noroeste 11 Noroeste 0 -- -- 90
2020-01-18 19:00:00 9.5 0 Calma 3 Sur 0.1 -- -- 88
2020-01-18 18:00:00 10 2 Noroeste 9 Norte 0 -- -- 84
2020-01-18 17:00:00 10.9 3 Oeste 8 Noroeste 0 -- -- 77
2020-01-18 16:00:00 10.9 3 Sudoeste 12 Sudoeste 0 -- -- 78
2020-01-18 15:00:00 10.6 0 Calma 18 Sudoeste 0 -- -- 81
2020-01-18 14:00:00 10.5 5 Sudoeste 19 Sur 0 -- -- 80
2020-01-18 13:00:00 9.7 4 Sur 21 Sudeste 0 -- -- 83
2020-01-18 12:00:00 8.7 10 Este 16 Sudeste 0.1 -- -- 86
2020-01-18 11:00:00 7.1 10 Este 14 Sudeste 0.2 -- -- 89
2020-01-18 10:00:00 6.2 6 Este 9 Este 0 -- -- 91
2020-01-18 09:00:00 5.5 5 Este 17 Sudeste 0.1 -- -- 91
2020-01-18 08:00:00 4.8 8 Este 16 Sudeste 0.5 -- -- 90
2020-01-18 07:00:00 4.9 9 Este 15 Este 0 -- -- 90
2020-01-18 06:00:00 4.7 5 Sudeste 14 Este 0 -- -- 90
2020-01-18 05:00:00 5 6 Este 12 Este 0 -- -- 89
2020-01-18 04:00:00 5.3 0 Calma 9 Este 0 -- -- 90
2020-01-18 03:00:00 4.8 4 Este 8 Este 0 -- -- 89
2020-01-18 02:00:00 4.6 3 Sudeste 11 Sudeste 0 -- -- 89
2020-01-18 01:00:00 4.8 4 Este 9 Este 0 -- -- 88
2020-01-18 00:00:00 5 2 Este 8 Este 0 -- -- 88
2020-01-17 23:00:00 4.9 3 Este 7 Este 0 -- -- 88
2020-01-17 22:00:00 4.5 0 Calma 7 Noroeste 0 -- -- 88
2020-01-17 21:00:00 3.9 0 Calma 4 Norte 0 -- -- 85
2020-01-17 20:00:00 4.7 3 Norte 10 Sudeste 0 -- -- 79
2020-01-17 19:00:00 7.1 5 Noroeste 9 Oeste 0 -- -- 69
2020-01-17 18:00:00 11.3 5 Oeste 17 Oeste 0 -- -- 59
2020-01-17 17:00:00 13 9 Oeste 20 Oeste 0 -- -- 55
2020-01-17 16:00:00 12.7 9 Oeste 25 Oeste 0 -- -- 57
2020-01-17 15:00:00 12.7 11 Oeste 25 Noroeste 0 -- -- 60
2020-01-17 14:00:00 12 14 Oeste 27 Oeste 0 -- -- 62
2020-01-17 13:00:00 12.2 14 Oeste 28 Noroeste 0 -- -- 62
2020-01-17 12:00:00 11.6 11 Oeste 25 Oeste 0 -- -- 68
2020-01-17 11:00:00 10 6 Oeste 21 Oeste 0 -- -- 74
2020-01-17 10:00:00 5.7 4 Este 5 Este 0 -- -- 86
2020-01-17 09:00:00 1.8 0 Calma 8 Este 0 -- -- 87
2020-01-17 08:00:00 2.6 0 Calma 4 Norte 0 -- -- 85
2020-01-17 07:00:00 3.7 0 Calma 0 Calma 0 -- -- 86
2020-01-17 06:00:00 2.5 0 Calma 7 Norte 0 -- -- 84
2020-01-17 05:00:00 2.2 3 Norte 6 Noroeste 0 -- -- 78
2020-01-17 04:00:00 4.8 0 Calma 6 Noroeste 0 -- -- 73
2020-01-17 03:00:00 5.5 0 Calma 8 Norte 0 -- -- 62
2020-01-17 02:00:00 7.6 3 Sudoeste 11 Oeste 0 -- -- 55
2020-01-17 01:00:00 8.2 3 Sudoeste 11 Oeste 0 -- -- 53
2020-01-17 00:00:00 8.6 3 Sudoeste 11 Sudoeste 0 -- -- 51
2020-01-16 23:00:00 8.7 5 Sur 13 Sur 0 -- -- 51
2020-01-16 22:00:00 7.6 2 Sudeste 12 Sudoeste 0 -- -- 53
2020-01-16 21:00:00 9.5 2 Oeste 9 Este 0 -- -- 48
2020-01-16 20:00:00 10.3 3 Sudeste 8 Sudeste 0 -- -- 47
2020-01-16 19:00:00 10.8 2 Sudoeste 10 Sudoeste 0 -- -- 45
2020-01-16 18:00:00 13.5 5 Sudoeste 13 Sur 0 -- -- 41
2020-01-16 17:00:00 15.8 3 Noroeste 11 Noroeste 0 -- -- 43
2020-01-16 16:00:00 15.9 6 Oeste 13 Oeste 0 -- -- 44
2020-01-16 15:00:00 15.2 3 Este 10 Este 0 -- -- 49
2020-01-16 14:00:00 14 4 Noroeste 8 Noroeste 0 -- -- 55
2020-01-16 13:00:00 12.9 4 Noroeste 11 Sudeste 0 -- -- 60
2020-01-16 12:00:00 10.4 5 Este 12 Este 0 -- -- 68
2020-01-16 11:00:00 8.7 7 Este 12 Este 0 -- -- 75
2020-01-16 10:00:00 7.2 9 Sudeste 14 Sudeste 0 -- -- 83
2020-01-16 09:00:00 5.9 7 Este 13 Este 0 -- -- 86
2020-01-16 08:00:00 6.1 6 Este 14 Este 0 -- -- 87
2020-01-16 07:00:00 6 8 Este 13 Este 0 -- -- 87
2020-01-16 06:00:00 6.4 0 Calma 11 Sudeste 0 -- -- 85
2020-01-16 05:00:00 6.5 6 Este 13 Este 0 -- -- 85
2020-01-16 04:00:00 6.2 5 Este 10 Sudeste 0 -- -- 85
2020-01-16 03:00:00 6.4 0 Calma 5 Este 0 -- -- 85
2020-01-16 02:00:00 6.4 0 Calma 3 Norte 0 -- -- 83
2020-01-16 01:00:00 6.9 3 Este 7 Este 0 -- -- 82
2020-01-16 00:00:00 7.1 0 Calma 10 Este 0 -- -- 80
2020-01-15 23:00:00 6.5 3 Nordeste 9 Este 0 -- -- 82
2020-01-15 22:00:00 7.4 0 Calma 5 Norte 0 -- -- 79
2020-01-15 21:00:00 8.4 0 Calma 6 Este 0 -- -- 76
2020-01-15 20:00:00 8.6 0 Calma 6 Nordeste 0 -- -- 74
2020-01-15 19:00:00 9.2 5 Nordeste 11 Nordeste 0 -- -- 69
2020-01-15 18:00:00 9.6 3 Nordeste 7 Nordeste 0 -- -- 67
2020-01-15 17:00:00 10.2 4 Norte 9 Noroeste 0 -- -- 65
2020-01-15 16:00:00 10.8 3 Noroeste 8 Sudeste 0 -- -- 60
2020-01-15 15:00:00 10.8 5 Sudeste 13 Sudeste 0 -- -- 62
2020-01-15 14:00:00 9.9 5 Este 14 Este 0 -- -- 67
2020-01-15 13:00:00 8.5 8 Sudeste 13 Este 0 -- -- 73
2020-01-15 12:00:00 6.9 8 Este 12 Sudeste 0 -- -- 78
2020-01-15 11:00:00 5.8 8 Este 16 Sudeste 0 -- -- 80
2020-01-15 10:00:00 4.2 11 Este 18 Este 0 -- -- 86
2020-01-15 09:00:00 2.2 7 Este 10 Este 0 -- -- 88
2020-01-15 08:00:00 2.6 7 Este 18 Sudeste 0 -- -- 89
2020-01-15 07:00:00 0.8 10 Sudeste 15 Sudeste 0 -- -- 88
2020-01-15 06:00:00 1.9 13 Este 19 Este 0 -- -- 87
2020-01-15 05:00:00 2.4 8 Este 12 Sudeste 0 -- -- 85
2020-01-15 04:00:00 2.8 6 Este 15 Este 0 -- -- 84
2020-01-15 03:00:00 2.5 8 Este 16 Sudeste 0 -- -- 82
2020-01-15 02:00:00 3.6 7 Sudeste 13 Este 0 -- -- 81
2020-01-15 01:00:00 3.7 6 Este 13 Este 0 -- -- 81
2020-01-15 00:00:00 3.4 5 Este 9 Este 0 -- -- 83
2020-01-14 23:00:00 2.6 3 Noroeste 5 Norte 0 -- -- 83
2020-01-14 22:00:00 2.1 0 Calma 8 Este 0 -- -- 80
2020-01-14 21:00:00 3.7 4 Este 8 Este 0 -- -- 80
2020-01-14 20:00:00 3.2 0 Calma 6 Norte 0 -- -- 79
2020-01-14 19:00:00 3.5 5 Norte 6 Norte 0 -- -- 70
2020-01-14 18:00:00 8 3 Norte 9 Oeste 0 -- -- 55
2020-01-14 17:00:00 11.2 4 Oeste 11 Oeste 0 -- -- 48
2020-01-14 16:00:00 11.1 5 Oeste 10 Sur 0 -- -- 48
2020-01-14 15:00:00 10.2 4 Oeste 11 Noroeste 0 -- -- 51
2020-01-14 14:00:00 9.3 4 Sudoeste 10 Oeste 0 -- -- 56
2020-01-14 13:00:00 7.6 3 Sudeste 8 Este 0 -- -- 62
2020-01-14 12:00:00 4.6 7 Sudeste 14 Sudeste 0 -- -- 71
2020-01-14 11:00:00 1.6 8 Sudeste 21 Sudeste 0 -- -- 82
2020-01-14 10:00:00 -1.1 15 Este 21 Sudeste 0 -- -- 88
2020-01-14 09:00:00 -2.7 11 Este 16 Este 0 -- -- 90
2020-01-14 08:00:00 -3.1 9 Este 16 Sudeste 0 -- -- 90
2020-01-14 07:00:00 -2.9 7 Este 16 Este 0 -- -- 90
2020-01-14 06:00:00 -2.4 13 Este 19 Sudeste 0 -- -- 89
2020-01-14 05:00:00 -1.9 10 Este 16 Este 0 -- -- 89
2020-01-14 04:00:00 -1.8 12 Este 22 Este 0 -- -- 89
2020-01-14 03:00:00 -2.3 9 Este 16 Este 0 -- -- 88
2020-01-14 02:00:00 -1.5 7 Este 14 Este 0 -- -- 87
2020-01-14 01:00:00 -1.1 8 Este 17 Sudeste 0 -- -- 86
2020-01-14 00:00:00 -1 11 Este 17 Sudeste 0 -- -- 85
2020-01-13 23:00:00 -0.8 4 Este 9 Este 0 -- -- 84
2020-01-13 22:00:00 0.3 6 Este 10 Este 0 -- -- 84
2020-01-13 21:00:00 0.2 0 Calma 8 Este 0 -- -- 79
2020-01-13 20:00:00 1.4 4 Este 7 Este 0 -- -- 76
2020-01-13 19:00:00 3.3 2 Nordeste 5 Nordeste 0 -- -- 65
2020-01-13 18:00:00 7.9 3 Sudoeste 7 Oeste 0 -- -- 53
2020-01-13 17:00:00 9.5 2 Oeste 9 Sudoeste 0 -- -- 48
2020-01-13 16:00:00 10.6 3 Oeste 8 Oeste 0 -- -- 46
2020-01-13 15:00:00 9.6 0 Calma 8 Sur 0 -- -- 51
2020-01-13 14:00:00 8 3 Sudoeste 7 Sudeste 0 -- -- 57
2020-01-13 13:00:00 5.6 4 Sudeste 13 Sudeste 0 -- -- 65
2020-01-13 12:00:00 2.8 10 Sudeste 17 Sudeste 0 -- -- 76
2020-01-13 11:00:00 0.7 12 Sudeste 16 Este 0 -- -- 83
2020-01-13 10:00:00 -1.5 7 Sudeste 13 Sudeste 0 -- -- 88
2020-01-13 09:00:00 -3 5 Este 12 Este 0 -- -- 90
2020-01-13 08:00:00 -3.6 5 Este 12 Este 0 -- -- 89
2020-01-13 07:00:00 -3.6 10 Este 13 Este 0 -- -- 88
2020-01-13 06:00:00 -2.7 6 Este 15 Este 0 -- -- 88
2020-01-13 05:00:00 -2.8 8 Este 15 Este 0 -- -- 88
2020-01-13 04:00:00 -2.3 8 Este 13 Sudeste 0 -- -- 88
2020-01-13 03:00:00 -2.4 8 Este 12 Este 0 -- -- 88
2020-01-13 02:00:00 -3.1 4 Este 5 Sudeste 0 -- -- 87
2020-01-13 01:00:00 -2.4 2 Este 8 Este 0 -- -- 83
2020-01-13 00:00:00 -0.6 6 Este 12 Este 0 -- -- 83
2020-01-12 23:00:00 -0.2 5 Este 12 Este 0 -- -- 81
2020-01-12 22:00:00 0.2 6 Este 11 Este 0 -- -- 82
2020-01-12 21:00:00 0 4 Este 7 Este 0 -- -- 80
2020-01-12 20:00:00 0 0 Calma 4 Norte 0 -- -- 75
2020-01-12 19:00:00 2.5 3 Norte 6 Norte 0 -- -- 62
2020-01-12 18:00:00 8.6 3 Noroeste 7 Oeste 0 -- -- 45
2020-01-12 17:00:00 10.5 5 Oeste 11 Oeste 0 -- -- 43
2020-01-12 16:00:00 10.4 4 Noroeste 11 Oeste 0 -- -- 46
2020-01-12 15:00:00 9.4 4 Oeste 11 Sudoeste 0 -- -- 47
2020-01-12 14:00:00 8.4 4 Oeste 9 Norte 0 -- -- 56
2020-01-12 13:00:00 6.9 2 Sudoeste 6 Sudeste 0 -- -- 63
2020-01-12 12:00:00 4.3 2 Sudeste 6 Sudeste 0 -- -- 71
2020-01-12 11:00:00 1.6 2 Sudeste 11 Este 0 -- -- 81
2020-01-12 10:00:00 -1.4 6 Este 10 Sudeste 0 -- -- 89
2020-01-12 09:00:00 -4.4 3 Este 6 Este 0 -- -- 91
2020-01-12 08:00:00 -3.2 6 Este 13 Este 0 -- -- 91
2020-01-12 07:00:00 -4.8 0 Calma 8 Este 0 -- -- 91
2020-01-12 06:00:00 -3.8 4 Este 6 Este 0 -- -- 90
2020-01-12 05:00:00 -3.9 3 Este 7 Este 0 -- -- 88
2020-01-12 04:00:00 -2.5 2 Sudeste 10 Este 0 -- -- 88
2020-01-12 03:00:00 -2.4 2 Este 10 Este 0 -- -- 87
2020-01-12 02:00:00 -1.9 3 Este 13 Este 0 -- -- 86
2020-01-12 01:00:00 -0.5 6 Este 14 Este 0 -- -- 87
2020-01-12 00:00:00 -0.6 8 Este 13 Este 0 -- -- 87
2020-01-11 23:00:00 -0.3 6 Este 8 Sudeste 0 -- -- 88
2020-01-11 22:00:00 -1.1 0 Calma 7 Este 0 -- -- 84
2020-01-11 21:00:00 -0.1 0 Calma 4 Norte 0 -- -- 81
2020-01-11 20:00:00 0.9 2 Norte 4 Norte 0 -- -- 74
2020-01-11 19:00:00 4 0 Calma 5 Norte 0 -- -- 62
2020-01-11 18:00:00 9.4 0 Calma 5 Oeste 0 -- -- 45
2020-01-11 17:00:00 11.6 2 Oeste 7 Sudoeste 0 -- -- 40
2020-01-11 16:00:00 11.1 4 Oeste 9 Sudoeste 0 -- -- 43
2020-01-11 15:00:00 10.4 0 Calma 10 Oeste 0 -- -- 46
2020-01-11 14:00:00 9.6 3 Sudoeste 8 Sudoeste 0 -- -- 50
2020-01-11 13:00:00 7.7 3 Sudoeste 10 Sudoeste 0 -- -- 56
2020-01-11 12:00:00 5.9 0 Calma 6 Sudeste 0 -- -- 66
2020-01-11 11:00:00 2.8 0 Calma 5 Sudoeste 0 -- -- 77
2020-01-11 10:00:00 0.1 0 Calma 4 Sur 0 -- -- 88
2020-01-11 09:00:00 -2.8 0 Calma 3 Oeste 0 -- -- 89
2020-01-11 08:00:00 -2.8 0 Calma 4 Sur 0 -- -- 88
2020-01-11 07:00:00 -2 0 Calma 5 Norte 0 -- -- 86
2020-01-11 06:00:00 -1.1 2 Nordeste 10 Norte 0 -- -- 82
2020-01-11 05:00:00 0.5 6 Norte 10 Norte 0 -- -- 81
2020-01-11 04:00:00 1.4 7 Nordeste 12 Nordeste 0 -- -- 79
2020-01-11 03:00:00 2.5 5 Nordeste 16 Nordeste 0 -- -- 75
2020-01-11 02:00:00 0.7 7 Nordeste 11 Nordeste 0 -- -- 79
2020-01-11 01:00:00 1.1 4 Nordeste 10 Este 0 -- -- 76
2020-01-11 00:00:00 1.2 0 Calma 12 Nordeste 0 -- -- 69
2020-01-10 23:00:00 3.9 7 Nordeste 13 Nordeste 0 -- -- 65
2020-01-10 22:00:00 4 4 Nordeste 15 Nordeste 0 -- -- 61
2020-01-10 21:00:00 5.9 8 Nordeste 14 Nordeste 0 -- -- 55
2020-01-10 20:00:00 6.5 8 Norte 14 Nordeste 0 -- -- 55
2020-01-10 19:00:00 4.4 5 Norte 9 Nordeste 0 -- -- 53
2020-01-10 18:00:00 9.9 7 Nordeste 21 Nordeste 0 -- -- 39
2020-01-10 17:00:00 11.7 11 Nordeste 25 Nordeste 0 -- -- 34
2020-01-10 16:00:00 12.4 12 Nordeste 37 Nordeste 0 -- -- 33
2020-01-10 15:00:00 12.2 13 Nordeste 25 Nordeste 0 -- -- 34
2020-01-10 14:00:00 11.4 13 Norte 28 Nordeste 0 -- -- 42
2020-01-10 13:00:00 8.1 3 Noroeste 8 Oeste 0 -- -- 85
2020-01-10 12:00:00 2.9 2 Sur 6 Sur 0 -- -- 93
2020-01-10 11:00:00 -0.2 0 Calma 10 Sudeste 0 -- -- 93
2020-01-10 10:00:00 -1.5 3 Sudeste 7 Sudeste 0 -- -- 93
2020-01-10 09:00:00 -1.7 8 Este 13 Sudeste 0 -- -- 93
2020-01-10 08:00:00 -2.2 0 Calma 9 Sudeste 0 -- -- 92
2020-01-10 07:00:00 -1 2 Este 10 Este 0 -- -- 92
2020-01-10 06:00:00 -1 0 Calma 8 Este 0 -- -- 92
2020-01-10 05:00:00 0.7 4 Este 12 Este 0 -- -- 92
2020-01-10 04:00:00 0.3 8 Este 13 Este 0 -- -- 91
2020-01-10 03:00:00 0.8 3 Este 10 Sur 0 -- -- 91
2020-01-10 02:00:00 0.9 0 Calma 7 Este 0 -- -- 90
2020-01-10 01:00:00 2.6 4 Este 8 Noroeste 0 -- -- 89
2020-01-10 00:00:00 2.2 6 Noroeste 8 Noroeste 0 -- -- 87
2020-01-09 23:00:00 3.4 6 Noroeste 9 Noroeste 0 -- -- 84
2020-01-09 22:00:00 5.7 3 Este 6 Sudeste 0 -- -- 83
2020-01-09 21:00:00 5.7 2 Sudeste 5 Noroeste 0 -- -- 83
2020-01-09 20:00:00 4.6 0 Calma 6 Noroeste 0 -- -- 79
2020-01-09 19:00:00 6.5 2 Norte 7 Sur 0 -- -- 65
2020-01-09 18:00:00 11.1 3 Sur 8 Sudoeste 0 -- -- 51
2020-01-09 17:00:00 13.3 3 Oeste 9 Oeste 0 -- -- 50
2020-01-09 16:00:00 14 4 Sudoeste 10 Oeste 0 -- -- 48
2020-01-09 15:00:00 13.6 3 Oeste 9 Oeste 0 -- -- 49
2020-01-09 14:00:00 12.1 2 Sur 15 Este 0 -- -- 53
2020-01-09 13:00:00 10.1 9 Sudeste 14 Sudeste 0 -- -- 59
2020-01-09 12:00:00 7.7 5 Sudeste 10 Sur 0 -- -- 67
2020-01-09 11:00:00 4.9 5 Sudeste 18 Sudeste 0 -- -- 81
2020-01-09 10:00:00 1.5 8 Este 10 Sudeste 0 -- -- 91
2020-01-09 09:00:00 -1.1 0 Calma 4 Sudeste 0 -- -- 91
2020-01-09 08:00:00 -1.2 0 Calma 4 Este 0 -- -- 91
2020-01-09 07:00:00 -0.7 0 Calma 6 Este 0 -- -- 91
2020-01-09 06:00:00 0.2 4 Este 6 Sudeste 0 -- -- 91
2020-01-09 05:00:00 -0.3 0 Calma 5 Noroeste 0 -- -- 90
2020-01-09 04:00:00 -0.1 0 Calma 3 Noroeste 0 -- -- 89
2020-01-09 03:00:00 0.4 0 Calma 6 Este 0 -- -- 87
2020-01-09 02:00:00 1.3 2 Sudeste 5 Sudeste 0 -- -- 86
2020-01-09 01:00:00 1.7 0 Calma 4 Este 0 -- -- 82
2020-01-09 00:00:00 4.2 0 Calma 14 Este 0 -- -- 74
2020-01-08 23:00:00 4.8 9 Este 16 Este 0 -- -- 74
2020-01-08 22:00:00 5.3 9 Este 15 Este 0 -- -- 72
2020-01-08 21:00:00 6.4 5 Este 13 Este 0 -- -- 68
2020-01-08 20:00:00 5 0 Calma 5 Norte 0 -- -- 70
2020-01-08 19:00:00 6.5 3 Norte 5 Nordeste 0 -- -- 58
2020-01-08 18:00:00 12.5 3 Norte 6 Noroeste 0 -- -- 37
2020-01-08 17:00:00 16 3 Sudoeste 5 Sudoeste 0 -- -- 31
2020-01-08 16:00:00 15.3 0 Calma 6 Sudeste 0 -- -- 33
2020-01-08 15:00:00 13.4 2 Sudeste 8 Este 0 -- -- 38
2020-01-08 14:00:00 11.1 3 Sudeste 8 Sudeste 0 -- -- 41
2020-01-08 13:00:00 9 4 Sudeste 9 Sudeste 0 -- -- 50
2020-01-08 12:00:00 5.9 4 Sudeste 7 Sudeste 0 -- -- 69
2020-01-08 11:00:00 3.4 3 Sudeste 6 Sudeste 0 -- -- 80
2020-01-08 10:00:00 0 4 Sudeste 6 Sudeste 0 -- -- 91
2020-01-08 09:00:00 -2.4 2 Este 8 Sudeste 0 -- -- 91
2020-01-08 08:00:00 -2.9 2 Sudeste 3 Sudeste 0 -- -- 91
2020-01-08 07:00:00 -2.8 0 Calma 5 Sudeste 0 -- -- 91
2020-01-08 06:00:00 -2.2 4 Este 6 Este 0 -- -- 91
2020-01-08 05:00:00 -2.4 0 Calma 5 Sudeste 0 -- -- 90
2020-01-08 04:00:00 -2 0 Calma 4 Este 0 -- -- 89
2020-01-08 03:00:00 -1.3 0 Calma 6 Noroeste 0 -- -- 88
2020-01-08 02:00:00 0.8 4 Este 12 Este 0 -- -- 88
2020-01-08 01:00:00 -0.4 7 Este 11 Este 0 -- -- 88
2020-01-08 00:00:00 0.8 5 Este 8 Este 0 -- -- 87
2020-01-07 23:00:00 0.9 4 Este 10 Sudeste 0 -- -- 86
2020-01-07 22:00:00 1 4 Este 8 Sudeste 0 -- -- 87
2020-01-07 21:00:00 1.1 0 Calma 5 Noroeste 0 -- -- 84
2020-01-07 20:00:00 2.3 3 Norte 6 Noroeste 0 -- -- 79
2020-01-07 19:00:00 4.4 3 Norte 6 Norte 0 -- -- 68
2020-01-07 18:00:00 10.8 0 Calma 4 Oeste 0 -- -- 48
2020-01-07 17:00:00 13.7 2 Sudoeste 6 Oeste 0 -- -- 42
2020-01-07 16:00:00 13.6 3 Sudoeste 7 Sudoeste 0 -- -- 44
2020-01-07 15:00:00 12.6 2 Sudoeste 10 Oeste 0 -- -- 49
2020-01-07 14:00:00 10.7 5 Sudoeste 8 Oeste 0 -- -- 55
2020-01-07 13:00:00 7.8 2 Sudeste 7 Sudeste 0 -- -- 62
2020-01-07 12:00:00 4.7 3 Sudeste 7 Sudeste 0 -- -- 73
2020-01-07 11:00:00 2.1 2 Sudeste 5 Sudeste 0 -- -- 83
2020-01-07 10:00:00 -0.7 0 Calma 4 Este 0 -- -- 91
2020-01-07 09:00:00 -3 3 Este 5 Sudeste 0 -- -- 91
2020-01-07 08:00:00 -3.4 0 Calma 6 Este 0 -- -- 91
2020-01-07 07:00:00 -2.2 5 Este 6 Este 0 -- -- 91
2020-01-07 06:00:00 -2.7 0 Calma 7 Este 0 -- -- 91
2020-01-07 05:00:00 -2.1 4 Este 8 Este 0 -- -- 91
2020-01-07 04:00:00 -1.4 5 Este 8 Este 0 -- -- 91
2020-01-07 03:00:00 -0.9 4 Este 9 Este 0 -- -- 91
2020-01-07 02:00:00 -1.1 3 Sudeste 5 Este 0 -- -- 90
2020-01-07 01:00:00 -0.8 0 Calma 6 Noroeste 0 -- -- 88
2020-01-07 00:00:00 0.2 0 Calma 11 Este 0 -- -- 86
2020-01-06 23:00:00 1.9 5 Este 9 Este 0 -- -- 87
2020-01-06 22:00:00 0.9 0 Calma 7 Noroeste 0 -- -- 86
2020-01-06 21:00:00 2 0 Calma 6 Noroeste 0 -- -- 83
2020-01-06 20:00:00 2.9 2 Norte 6 Noroeste 0 -- -- 77
2020-01-06 19:00:00 5 4 Norte 9 Noroeste 0 -- -- 67
2020-01-06 18:00:00 9.6 4 Noroeste 8 Noroeste 0 -- -- 49
2020-01-06 17:00:00 12.6 5 Noroeste 8 Noroeste 0 -- -- 45
2020-01-06 16:00:00 13.4 3 Sudoeste 7 Sudoeste 0 -- -- 43
2020-01-06 15:00:00 12.3 3 Oeste 9 Oeste 0 -- -- 46
2020-01-06 14:00:00 10.8 3 Sudoeste 9 Sudeste 0 -- -- 49
2020-01-06 13:00:00 8.1 5 Sudeste 9 Sudeste 0 -- -- 56
2020-01-06 12:00:00 5.6 6 Sudeste 10 Este 0 -- -- 70
2020-01-06 11:00:00 2.6 4 Sudeste 8 Este 0 -- -- 81
2020-01-06 10:00:00 0.3 3 Sudeste 4 Sudeste 0 -- -- 91